»·PEaware :: DAL5845 KSAN-KLAX

DAL5845 :: KSAN-KLAX

FLIGHT INFORMATION

Flight Status: Arrived
Operator:
Delta Air Lines
More flights by this operator :: More flights under this callsign
Pilot: Thomas S. (17015)
Aircraft: AIRBUS A320
(A320)
More flights by this aircraft type
Origin: KSAN San Diego Intl-Lindbergh
United States
Destination: KLAX Los Angeles Intl
United States
More flights between these airports :: More routes between these airports
Route: +PEBLE6 PEBLE SHIVE1
File this flight plan on PilotEdge
Remarks: PBN / A1B1C1D1O1S1 DOF / 180729 REG / N311US OPR / CP PER / C RMK / TCAS SIMBRIEF
Altitude:
(Current/Filed)
16,000ft
Speed:
(Current/Filed)
390kts
Departed: 29-Jul-18 12:22 PM
Arrived: 29-Jul-18 12:46 PM
Distance/Time
Traveled:
95nm/0:24
Distance/Time
To Go:
Arrived

Flight Plot

Page will automatically refresh every two minutes.

Flight plan parsing failed; only flown route is shown


Map Options




Map Legend


Flown Route
Filed Route
Departure Airport
Arrival Airport
Navaid (VOR, NDB)
Fix

Horizontal Profiles

Position Reports

Time Latitude Longitude Heading Altitude Ground
Speed
29-Jul-18 11:56 32.733415 -117.200768 264 26ft 0kts
29-Jul-18 11:57 32.733415 -117.200768 264 26ft 0kts
29-Jul-18 11:58 32.733415 -117.200768 264 26ft 0kts
29-Jul-18 11:59 32.733415 -117.200768 264 26ft 0kts
29-Jul-18 12:00 32.733415 -117.200768 264 26ft 0kts
29-Jul-18 12:01 32.733415 -117.200768 264 26ft 0kts
29-Jul-18 12:02 32.733415 -117.200768 264 26ft 0kts
29-Jul-18 12:03 32.733415 -117.200768 264 26ft 0kts
29-Jul-18 12:04 32.733415 -117.200768 264 26ft 0kts
29-Jul-18 12:05 32.733415 -117.200768 264 26ft 0kts
29-Jul-18 12:06 32.733415 -117.200768 264 26ft 0kts
29-Jul-18 12:07 32.733415 -117.200768 264 26ft 0kts
29-Jul-18 12:08 32.733415 -117.200768 264 26ft 0kts
29-Jul-18 12:09 32.733415 -117.200768 264 26ft 0kts
29-Jul-18 12:10 32.733415 -117.200768 264 26ft 0kts
29-Jul-18 12:11 32.733415 -117.200768 264 26ft 0kts
29-Jul-18 12:12 32.733415 -117.200768 264 26ft 0kts
29-Jul-18 12:13 32.733415 -117.200768 264 26ft 0kts
29-Jul-18 12:14 32.733415 -117.200768 264 26ft 0kts
29-Jul-18 12:15 32.733458 -117.200277 264 26ft 2kts
29-Jul-18 12:16 32.733271 -117.199856 20 26ft 1kts
29-Jul-18 12:17 32.733233 -117.199870 13 26ft 0kts
29-Jul-18 12:18 32.733233 -117.199870 13 26ft 0kts
29-Jul-18 12:19 32.734652 -117.199405 47 24ft 9kts
29-Jul-18 12:20 32.733479 -117.193611 105 25ft 24kts
29-Jul-18 12:21 32.731407 -117.185037 106 23ft 30kts
29-Jul-18 12:22 32.729789 -117.178277 107 23ft 3kts
29-Jul-18 12:23 32.730633 -117.177629 286 24ft 58kts
29-Jul-18 12:24 32.744124 -117.227536 298 2056ft 191kts
29-Jul-18 12:25 32.779293 -117.288582 305 4558ft 266kts
29-Jul-18 12:26 32.821381 -117.363072 305 8256ft 284kts
29-Jul-18 12:27 32.865651 -117.444790 305 10935ft 328kts
29-Jul-18 12:28 32.944227 -117.520780 330 11034ft 398kts
29-Jul-18 12:29 33.032649 -117.596657 308 11044ft 404kts
29-Jul-18 12:30 33.095537 -117.703294 308 11038ft 402kts
29-Jul-18 12:31 33.158626 -117.800230 308 11038ft 402kts
29-Jul-18 12:32 33.248786 -117.860356 343 11040ft 401kts
29-Jul-18 12:33 33.342515 -117.894345 343 11043ft 401kts
29-Jul-18 12:34 33.447741 -117.932431 343 10910ft 390kts
29-Jul-18 12:35 33.533020 -117.963529 343 9071ft 325kts
29-Jul-18 12:36 33.611824 -117.992206 343 7266ft 278kts
29-Jul-18 12:37 33.682689 -118.018008 343 7035ft 282kts
29-Jul-18 12:38 33.755892 -118.044721 343 7035ft 283kts
29-Jul-18 12:39 33.820771 -118.068868 342 6135ft 278kts
29-Jul-18 12:40 33.876615 -118.090049 342 5124ft 273kts
29-Jul-18 12:41 33.932985 -118.113971 319 4831ft 242kts
29-Jul-18 12:42 33.955343 -118.181927 277 3600ft 254kts
29-Jul-18 12:43 33.950877 -118.255801 259 2483ft 234kts
29-Jul-18 12:44 33.943686 -118.310810 263 1392ft 218kts
29-Jul-18 12:45 33.939032 -118.364795 264 546ft 159kts
29-Jul-18 12:46 33.935504 -118.401459 261 124ft 68kts
29-Jul-18 12:47 33.935774 -118.405849 294 131ft 18kts
29-Jul-18 12:48 33.938039 -118.409125 349 133ft 5kts
29-Jul-18 12:49 33.938122 -118.409144 349 133ft 0kts
29-Jul-18 12:50 33.940284 -118.408719 265 132ft 10kts
29-Jul-18 12:51 33.940212 -118.409409 262 131ft 0kts
29-Jul-18 12:52 33.940212 -118.409409 262 131ft 0kts
29-Jul-18 12:53 33.940212 -118.409409 262 131ft 0kts
29-Jul-18 12:54 33.940212 -118.409409 262 131ft 0kts
29-Jul-18 12:55 33.940212 -118.409409 262 131ft 0kts

Navigation Log

Ident Type
Flight plan parsing failed, navigation log unavailable